Terminal Aerodrome Forecast
Issued by NWS

Home | Current Version | Previous Version | Text Only | Print | Product List | Glossary On
Versions: 1 2 3 4 5 6 7 8 9 10 11 12 13 14 15
000
FTUS45 KRIW 301720
TAFCOD
TAF
KCOD 301720Z 3018/0118 02014G24KT P6SM VCSH SCT018 BKN025
     FM010130 36010KT P6SM VCSH BKN035
     FM010400 33011KT P6SM VCSH SCT035
     FM011400 36010KT P6SM SCT025 SCT035
      AMD LTD TO CLD VIS AND WIND=

USA.gov is the U.S. government's official web portal to all federal, state and local government web resources and services.